sensor_id;sensor_type;location;lat;lon;timestamp;temperature;humidity
28075;DHT22;15385;51.088;6.572;2023-04-15T00:01:35;11.90;99.90
28075;DHT22;15385;51.088;6.572;2023-04-15T00:04:06;11.90;99.90
28075;DHT22;15385;51.088;6.572;2023-04-15T00:06:37;11.80;99.90
28075;DHT22;15385;51.088;6.572;2023-04-15T00:09:08;11.90;99.90
28075;DHT22;15385;51.088;6.572;2023-04-15T00:11:39;11.70;99.90
28075;DHT22;15385;51.088;6.572;2023-04-15T00:14:10;11.70;99.90
28075;DHT22;15385;51.088;6.572;2023-04-15T00:16:40;11.70;99.90
28075;DHT22;15385;51.088;6.572;2023-04-15T00:19:11;11.70;99.90
28075;DHT22;15385;51.088;6.572;2023-04-15T00:21:42;11.70;99.90
28075;DHT22;15385;51.088;6.572;2023-04-15T00:24:12;11.70;99.90
28075;DHT22;15385;51.088;6.572;2023-04-15T00:26:43;11.60;99.90
28075;DHT22;15385;51.088;6.572;2023-04-15T00:29:14;11.60;99.90
28075;DHT22;15385;51.088;6.572;2023-04-15T00:31:44;11.70;99.90
28075;DHT22;15385;51.088;6.572;2023-04-15T00:34:15;11.60;99.90
28075;DHT22;15385;51.088;6.572;2023-04-15T00:36:46;11.60;99.90
28075;DHT22;15385;51.088;6.572;2023-04-15T00:39:17;11.50;99.90
28075;DHT22;15385;51.088;6.572;2023-04-15T00:41:48;11.50;99.90
28075;DHT22;15385;51.088;6.572;2023-04-15T00:44:19;11.40;99.90
28075;DHT22;15385;51.088;6.572;2023-04-15T00:46:50;11.40;99.90
28075;DHT22;15385;51.088;6.572;2023-04-15T00:49:20;11.40;99.90
28075;DHT22;15385;51.088;6.572;2023-04-15T00:51:51;11.30;99.90
28075;DHT22;15385;51.088;6.572;2023-04-15T00:54:22;11.30;99.90
28075;DHT22;15385;51.088;6.572;2023-04-15T00:56:52;11.20;99.90
28075;DHT22;15385;51.088;6.572;2023-04-15T00:59:23;11.10;99.90
28075;DHT22;15385;51.088;6.572;2023-04-15T01:01:54;11.10;99.90
28075;DHT22;15385;51.088;6.572;2023-04-15T01:04:24;11.10;99.90
28075;DHT22;15385;51.088;6.572;2023-04-15T01:06:55;11.00;99.90
28075;DHT22;15385;51.088;6.572;2023-04-15T01:09:26;11.00;99.90
28075;DHT22;15385;51.088;6.572;2023-04-15T01:11:57;10.90;99.90
28075;DHT22;15385;51.088;6.572;2023-04-15T01:14:28;10.90;99.90
28075;DHT22;15385;51.088;6.572;2023-04-15T01:16:58;10.90;99.90
28075;DHT22;15385;51.088;6.572;2023-04-15T01:19:29;10.80;99.90
28075;DHT22;15385;51.088;6.572;2023-04-15T01:22:01;10.70;99.90
28075;DHT22;15385;51.088;6.572;2023-04-15T01:24:32;10.70;99.90
28075;DHT22;15385;51.088;6.572;2023-04-15T01:27:04;10.70;99.90
28075;DHT22;15385;51.088;6.572;2023-04-15T01:29:37;10.70;99.90
28075;DHT22;15385;51.088;6.572;2023-04-15T01:32:08;10.70;99.90
28075;DHT22;15385;51.088;6.572;2023-04-15T01:34:38;10.70;99.90
28075;DHT22;15385;51.088;6.572;2023-04-15T01:37:09;10.70;99.90
28075;DHT22;15385;51.088;6.572;2023-04-15T01:39:39;10.70;99.90
28075;DHT22;15385;51.088;6.572;2023-04-15T01:42:10;10.60;99.90
28075;DHT22;15385;51.088;6.572;2023-04-15T01:44:41;10.60;99.90
28075;DHT22;15385;51.088;6.572;2023-04-15T01:47:11;10.50;99.90
28075;DHT22;15385;51.088;6.572;2023-04-15T01:49:42;10.50;99.90
28075;DHT22;15385;51.088;6.572;2023-04-15T01:52:12;10.50;99.90
28075;DHT22;15385;51.088;6.572;2023-04-15T01:54:43;10.50;99.90
28075;DHT22;15385;51.088;6.572;2023-04-15T01:57:14;10.50;99.90
28075;DHT22;15385;51.088;6.572;2023-04-15T01:59:45;10.40;99.90
28075;DHT22;15385;51.088;6.572;2023-04-15T02:02:16;10.50;99.90
28075;DHT22;15385;51.088;6.572;2023-04-15T02:04:47;10.40;99.90
28075;DHT22;15385;51.088;6.572;2023-04-15T02:07:17;10.40;99.90
28075;DHT22;15385;51.088;6.572;2023-04-15T02:09:48;10.30;99.90
28075;DHT22;15385;51.088;6.572;2023-04-15T02:12:19;10.30;99.90
28075;DHT22;15385;51.088;6.572;2023-04-15T02:14:50;10.30;99.90
28075;DHT22;15385;51.088;6.572;2023-04-15T02:17:20;10.20;99.90
28075;DHT22;15385;51.088;6.572;2023-04-15T02:19:51;10.20;99.90
28075;DHT22;15385;51.088;6.572;2023-04-15T02:22:21;10.20;99.90
28075;DHT22;15385;51.088;6.572;2023-04-15T02:24:52;10.20;99.90
28075;DHT22;15385;51.088;6.572;2023-04-15T02:27:23;10.10;99.90
28075;DHT22;15385;51.088;6.572;2023-04-15T02:29:54;10.10;99.90
28075;DHT22;15385;51.088;6.572;2023-04-15T02:32:24;10.10;99.90
28075;DHT22;15385;51.088;6.572;2023-04-15T02:34:55;10.00;99.90
28075;DHT22;15385;51.088;6.572;2023-04-15T02:37:25;9.90;99.90
28075;DHT22;15385;51.088;6.572;2023-04-15T02:39:57;9.90;99.90
28075;DHT22;15385;51.088;6.572;2023-04-15T02:42:28;9.90;99.90
28075;DHT22;15385;51.088;6.572;2023-04-15T02:44:59;9.80;99.90
28075;DHT22;15385;51.088;6.572;2023-04-15T02:47:30;9.80;99.90
28075;DHT22;15385;51.088;6.572;2023-04-15T02:50:04;9.90;99.90
28075;DHT22;15385;51.088;6.572;2023-04-15T02:52:35;9.80;99.90
28075;DHT22;15385;51.088;6.572;2023-04-15T02:55:06;9.70;99.90
28075;DHT22;15385;51.088;6.572;2023-04-15T02:57:37;9.80;99.90
28075;DHT22;15385;51.088;6.572;2023-04-15T03:00:09;9.80;99.90
28075;DHT22;15385;51.088;6.572;2023-04-15T03:02:41;9.70;99.90
28075;DHT22;15385;51.088;6.572;2023-04-15T03:05:13;9.80;99.90
28075;DHT22;15385;51.088;6.572;2023-04-15T03:07:43;9.70;99.90
28075;DHT22;15385;51.088;6.572;2023-04-15T03:10:14;9.70;99.90
28075;DHT22;15385;51.088;6.572;2023-04-15T03:12:45;9.70;99.90
28075;DHT22;15385;51.088;6.572;2023-04-15T03:15:15;9.60;99.90
28075;DHT22;15385;51.088;6.572;2023-04-15T03:17:46;9.60;99.90
28075;DHT22;15385;51.088;6.572;2023-04-15T03:20:18;9.60;99.90
28075;DHT22;15385;51.088;6.572;2023-04-15T03:22:49;9.40;99.90
28075;DHT22;15385;51.088;6.572;2023-04-15T03:25:20;9.50;99.90
28075;DHT22;15385;51.088;6.572;2023-04-15T03:27:50;9.40;99.90
28075;DHT22;15385;51.088;6.572;2023-04-15T03:30:21;9.40;99.90
28075;DHT22;15385;51.088;6.572;2023-04-15T03:32:52;9.40;99.90
28075;DHT22;15385;51.088;6.572;2023-04-15T03:35:22;9.40;99.90
28075;DHT22;15385;51.088;6.572;2023-04-15T03:37:53;9.40;99.90
28075;DHT22;15385;51.088;6.572;2023-04-15T03:40:23;9.40;99.90
28075;DHT22;15385;51.088;6.572;2023-04-15T03:42:54;9.40;99.90
28075;DHT22;15385;51.088;6.572;2023-04-15T03:45:25;9.40;99.90
28075;DHT22;15385;51.088;6.572;2023-04-15T03:47:55;9.30;99.90
28075;DHT22;15385;51.088;6.572;2023-04-15T03:50:26;9.30;99.90
28075;DHT22;15385;51.088;6.572;2023-04-15T03:52:57;9.20;99.90
28075;DHT22;15385;51.088;6.572;2023-04-15T03:55:27;9.20;99.90
28075;DHT22;15385;51.088;6.572;2023-04-15T03:57:58;9.20;99.90
28075;DHT22;15385;51.088;6.572;2023-04-15T04:00:28;9.20;99.90
28075;DHT22;15385;51.088;6.572;2023-04-15T04:02:59;9.20;99.90
28075;DHT22;15385;51.088;6.572;2023-04-15T04:05:30;9.20;99.90
28075;DHT22;15385;51.088;6.572;2023-04-15T04:08:00;9.10;99.90
28075;DHT22;15385;51.088;6.572;2023-04-15T04:10:31;9.10;99.90
28075;DHT22;15385;51.088;6.572;2023-04-15T04:13:02;9.10;99.90
28075;DHT22;15385;51.088;6.572;2023-04-15T04:15:32;9.10;99.90
28075;DHT22;15385;51.088;6.572;2023-04-15T04:18:03;9.10;99.90
28075;DHT22;15385;51.088;6.572;2023-04-15T04:20:34;9.10;99.90
28075;DHT22;15385;51.088;6.572;2023-04-15T04:23:04;9.00;99.90
28075;DHT22;15385;51.088;6.572;2023-04-15T04:25:35;9.00;99.90
28075;DHT22;15385;51.088;6.572;2023-04-15T04:28:06;9.00;99.90
28075;DHT22;15385;51.088;6.572;2023-04-15T04:30:37;9.00;99.90
28075;DHT22;15385;51.088;6.572;2023-04-15T04:33:08;9.00;99.90
28075;DHT22;15385;51.088;6.572;2023-04-15T04:35:38;9.00;99.90
28075;DHT22;15385;51.088;6.572;2023-04-15T04:38:09;9.00;99.90
28075;DHT22;15385;51.088;6.572;2023-04-15T04:40:40;9.10;99.90
28075;DHT22;15385;51.088;6.572;2023-04-15T04:43:10;9.00;99.90
28075;DHT22;15385;51.088;6.572;2023-04-15T04:45:41;9.00;99.90
28075;DHT22;15385;51.088;6.572;2023-04-15T04:48:12;9.00;99.90
28075;DHT22;15385;51.088;6.572;2023-04-15T04:50:43;9.00;99.90
28075;DHT22;15385;51.088;6.572;2023-04-15T04:53:14;9.00;99.90
28075;DHT22;15385;51.088;6.572;2023-04-15T04:55:45;9.10;99.90
28075;DHT22;15385;51.088;6.572;2023-04-15T04:58:16;9.00;99.90
28075;DHT22;15385;51.088;6.572;2023-04-15T05:00:46;9.10;99.90
28075;DHT22;15385;51.088;6.572;2023-04-15T05:03:17;9.00;99.90
28075;DHT22;15385;51.088;6.572;2023-04-15T05:05:47;9.00;99.90
28075;DHT22;15385;51.088;6.572;2023-04-15T05:08:18;9.10;99.90
28075;DHT22;15385;51.088;6.572;2023-04-15T05:10:49;9.10;99.90
28075;DHT22;15385;51.088;6.572;2023-04-15T05:13:19;9.00;99.90
28075;DHT22;15385;51.088;6.572;2023-04-15T05:15:50;9.10;99.90
28075;DHT22;15385;51.088;6.572;2023-04-15T05:18:21;9.10;99.90
28075;DHT22;15385;51.088;6.572;2023-04-15T05:20:52;9.10;99.90
28075;DHT22;15385;51.088;6.572;2023-04-15T05:23:22;9.20;99.90
28075;DHT22;15385;51.088;6.572;2023-04-15T05:25:53;9.20;99.90
28075;DHT22;15385;51.088;6.572;2023-04-15T05:28:24;9.20;99.90
28075;DHT22;15385;51.088;6.572;2023-04-15T05:30:54;9.20;99.90
28075;DHT22;15385;51.088;6.572;2023-04-15T05:33:25;9.30;99.90
28075;DHT22;15385;51.088;6.572;2023-04-15T05:35:56;9.30;99.90
28075;DHT22;15385;51.088;6.572;2023-04-15T05:38:27;9.40;99.90
28075;DHT22;15385;51.088;6.572;2023-04-15T05:40:57;9.40;99.90
28075;DHT22;15385;51.088;6.572;2023-04-15T05:43:28;9.50;99.90
28075;DHT22;15385;51.088;6.572;2023-04-15T05:45:59;9.60;99.90
28075;DHT22;15385;51.088;6.572;2023-04-15T05:48:30;9.70;99.90
28075;DHT22;15385;51.088;6.572;2023-04-15T05:51:01;9.80;99.90
28075;DHT22;15385;51.088;6.572;2023-04-15T05:53:31;9.90;99.90
28075;DHT22;15385;51.088;6.572;2023-04-15T05:56:02;10.00;99.90
28075;DHT22;15385;51.088;6.572;2023-04-15T05:58:33;10.20;99.90
28075;DHT22;15385;51.088;6.572;2023-04-15T06:01:03;10.40;99.90
28075;DHT22;15385;51.088;6.572;2023-04-15T06:03:34;10.50;99.90
28075;DHT22;15385;51.088;6.572;2023-04-15T06:06:05;10.50;99.90
28075;DHT22;15385;51.088;6.572;2023-04-15T06:08:37;10.50;99.90
28075;DHT22;15385;51.088;6.572;2023-04-15T06:11:07;10.50;99.90
28075;DHT22;15385;51.088;6.572;2023-04-15T06:13:38;10.50;99.90
28075;DHT22;15385;51.088;6.572;2023-04-15T06:16:08;10.60;99.90
28075;DHT22;15385;51.088;6.572;2023-04-15T06:18:39;10.60;99.90
28075;DHT22;15385;51.088;6.572;2023-04-15T06:21:10;10.70;99.90
28075;DHT22;15385;51.088;6.572;2023-04-15T06:23:40;10.70;99.90
28075;DHT22;15385;51.088;6.572;2023-04-15T06:26:11;10.70;99.90
28075;DHT22;15385;51.088;6.572;2023-04-15T06:28:42;10.70;99.90
28075;DHT22;15385;51.088;6.572;2023-04-15T06:31:13;10.80;99.90
28075;DHT22;15385;51.088;6.572;2023-04-15T06:33:44;10.90;99.90
28075;DHT22;15385;51.088;6.572;2023-04-15T06:36:14;10.90;99.90
28075;DHT22;15385;51.088;6.572;2023-04-15T06:38:45;10.90;99.90
28075;DHT22;15385;51.088;6.572;2023-04-15T06:41:16;10.90;99.90
28075;DHT22;15385;51.088;6.572;2023-04-15T06:43:47;11.00;99.90
28075;DHT22;15385;51.088;6.572;2023-04-15T06:46:18;11.10;99.90
28075;DHT22;15385;51.088;6.572;2023-04-15T06:48:48;11.20;99.90
28075;DHT22;15385;51.088;6.572;2023-04-15T06:51:19;11.20;99.90
28075;DHT22;15385;51.088;6.572;2023-04-15T06:53:49;11.10;99.90
28075;DHT22;15385;51.088;6.572;2023-04-15T06:56:20;11.20;99.90
28075;DHT22;15385;51.088;6.572;2023-04-15T06:58:51;11.20;99.90
28075;DHT22;15385;51.088;6.572;2023-04-15T07:01:21;11.30;99.90
28075;DHT22;15385;51.088;6.572;2023-04-15T07:03:52;11.40;99.90
28075;DHT22;15385;51.088;6.572;2023-04-15T07:06:23;11.50;99.90
28075;DHT22;15385;51.088;6.572;2023-04-15T07:08:54;11.70;99.90
28075;DHT22;15385;51.088;6.572;2023-04-15T07:11:25;11.70;99.90
28075;DHT22;15385;51.088;6.572;2023-04-15T07:13:57;11.70;99.90
28075;DHT22;15385;51.088;6.572;2023-04-15T07:16:28;11.80;99.90
28075;DHT22;15385;51.088;6.572;2023-04-15T07:18:59;11.90;99.90
28075;DHT22;15385;51.088;6.572;2023-04-15T07:21:29;12.00;99.90
28075;DHT22;15385;51.088;6.572;2023-04-15T07:24:00;12.20;99.90
28075;DHT22;15385;51.088;6.572;2023-04-15T07:26:30;12.20;99.90
28075;DHT22;15385;51.088;6.572;2023-04-15T07:29:01;12.30;99.90
28075;DHT22;15385;51.088;6.572;2023-04-15T07:31:31;12.50;99.90
28075;DHT22;15385;51.088;6.572;2023-04-15T07:34:02;12.60;99.90
28075;DHT22;15385;51.088;6.572;2023-04-15T07:36:34;12.60;99.90
28075;DHT22;15385;51.088;6.572;2023-04-15T07:39:05;12.70;99.90
28075;DHT22;15385;51.088;6.572;2023-04-15T07:41:35;12.80;99.90
28075;DHT22;15385;51.088;6.572;2023-04-15T07:44:06;12.80;99.90
28075;DHT22;15385;51.088;6.572;2023-04-15T07:46:37;12.90;99.90
28075;DHT22;15385;51.088;6.572;2023-04-15T07:49:07;12.90;99.90
28075;DHT22;15385;51.088;6.572;2023-04-15T07:51:38;12.90;99.90
28075;DHT22;15385;51.088;6.572;2023-04-15T07:54:09;12.90;99.90
28075;DHT22;15385;51.088;6.572;2023-04-15T07:56:39;13.00;99.90
28075;DHT22;15385;51.088;6.572;2023-04-15T07:59:10;13.00;99.90
28075;DHT22;15385;51.088;6.572;2023-04-15T08:01:41;13.00;99.90
28075;DHT22;15385;51.088;6.572;2023-04-15T08:04:11;13.00;99.90
28075;DHT22;15385;51.088;6.572;2023-04-15T08:06:42;13.00;99.90
28075;DHT22;15385;51.088;6.572;2023-04-15T08:09:13;13.00;99.90
28075;DHT22;15385;51.088;6.572;2023-04-15T08:11:44;13.00;99.90
28075;DHT22;15385;51.088;6.572;2023-04-15T08:14:14;13.00;99.90
28075;DHT22;15385;51.088;6.572;2023-04-15T08:16:45;13.10;99.90
28075;DHT22;15385;51.088;6.572;2023-04-15T08:19:16;13.20;99.90
28075;DHT22;15385;51.088;6.572;2023-04-15T08:21:46;13.40;99.90
28075;DHT22;15385;51.088;6.572;2023-04-15T08:24:17;13.60;99.90
28075;DHT22;15385;51.088;6.572;2023-04-15T08:26:48;13.70;99.90
28075;DHT22;15385;51.088;6.572;2023-04-15T08:29:18;13.90;99.90
28075;DHT22;15385;51.088;6.572;2023-04-15T08:31:49;13.90;99.90
28075;DHT22;15385;51.088;6.572;2023-04-15T08:34:20;14.00;99.90
28075;DHT22;15385;51.088;6.572;2023-04-15T08:36:50;14.00;99.90
28075;DHT22;15385;51.088;6.572;2023-04-15T08:39:21;14.20;99.90
28075;DHT22;15385;51.088;6.572;2023-04-15T08:41:59;14.30;99.90
28075;DHT22;15385;51.088;6.572;2023-04-15T08:44:34;14.30;99.90
28075;DHT22;15385;51.088;6.572;2023-04-15T08:47:08;14.30;99.90
28075;DHT22;15385;51.088;6.572;2023-04-15T08:49:40;14.30;99.90
28075;DHT22;15385;51.088;6.572;2023-04-15T08:52:12;14.20;99.90
28075;DHT22;15385;51.088;6.572;2023-04-15T08:54:43;14.20;99.90
28075;DHT22;15385;51.088;6.572;2023-04-15T08:57:14;14.20;99.90
28075;DHT22;15385;51.088;6.572;2023-04-15T08:59:46;14.20;99.90
28075;DHT22;15385;51.088;6.572;2023-04-15T09:02:17;14.20;99.90
28075;DHT22;15385;51.088;6.572;2023-04-15T09:04:48;14.20;99.90
28075;DHT22;15385;51.088;6.572;2023-04-15T09:07:18;14.20;99.90
28075;DHT22;15385;51.088;6.572;2023-04-15T09:09:49;14.30;99.90
28075;DHT22;15385;51.088;6.572;2023-04-15T09:12:20;14.40;99.90
28075;DHT22;15385;51.088;6.572;2023-04-15T09:14:51;14.50;99.90
28075;DHT22;15385;51.088;6.572;2023-04-15T09:17:23;14.50;99.90
28075;DHT22;15385;51.088;6.572;2023-04-15T09:22:40;14.50;99.90
28075;DHT22;15385;51.088;6.572;2023-04-15T09:27:56;14.60;99.90
28075;DHT22;15385;51.088;6.572;2023-04-15T09:30:27;14.80;99.90
28075;DHT22;15385;51.088;6.572;2023-04-15T09:33:00;14.90;99.90
28075;DHT22;15385;51.088;6.572;2023-04-15T09:35:37;15.10;99.90
28075;DHT22;15385;51.088;6.572;2023-04-15T09:38:09;15.30;99.90
28075;DHT22;15385;51.088;6.572;2023-04-15T09:40:40;15.50;99.90
28075;DHT22;15385;51.088;6.572;2023-04-15T09:43:11;15.50;99.90
28075;DHT22;15385;51.088;6.572;2023-04-15T09:45:51;15.40;99.90
28075;DHT22;15385;51.088;6.572;2023-04-15T09:48:24;15.50;99.90
28075;DHT22;15385;51.088;6.572;2023-04-15T09:51:00;15.60;99.90
28075;DHT22;15385;51.088;6.572;2023-04-15T09:53:33;15.60;99.90
28075;DHT22;15385;51.088;6.572;2023-04-15T09:56:05;15.80;99.90
28075;DHT22;15385;51.088;6.572;2023-04-15T09:58:38;16.00;99.90
28075;DHT22;15385;51.088;6.572;2023-04-15T10:01:10;15.90;99.90
28075;DHT22;15385;51.088;6.572;2023-04-15T10:03:41;15.90;99.90
28075;DHT22;15385;51.088;6.572;2023-04-15T10:06:13;15.90;99.90
28075;DHT22;15385;51.088;6.572;2023-04-15T10:08:45;15.90;99.90
28075;DHT22;15385;51.088;6.572;2023-04-15T10:11:19;15.90;99.90
28075;DHT22;15385;51.088;6.572;2023-04-15T10:13:51;16.00;99.90
28075;DHT22;15385;51.088;6.572;2023-04-15T10:16:25;16.10;99.90
28075;DHT22;15385;51.088;6.572;2023-04-15T10:19:00;16.10;99.90
28075;DHT22;15385;51.088;6.572;2023-04-15T10:21:32;16.20;99.90
28075;DHT22;15385;51.088;6.572;2023-04-15T10:24:03;16.30;99.90
28075;DHT22;15385;51.088;6.572;2023-04-15T10:26:34;16.40;99.90
28075;DHT22;15385;51.088;6.572;2023-04-15T10:29:05;16.40;99.90
28075;DHT22;15385;51.088;6.572;2023-04-15T10:31:36;16.40;99.90
28075;DHT22;15385;51.088;6.572;2023-04-15T10:34:07;16.50;99.90
28075;DHT22;15385;51.088;6.572;2023-04-15T10:36:38;16.80;99.90
28075;DHT22;15385;51.088;6.572;2023-04-15T10:39:41;16.90;99.90
28075;DHT22;15385;51.088;6.572;2023-04-15T10:42:17;17.00;99.90
28075;DHT22;15385;51.088;6.572;2023-04-15T10:44:50;17.20;99.90
28075;DHT22;15385;51.088;6.572;2023-04-15T10:47:21;17.40;99.90
28075;DHT22;15385;51.088;6.572;2023-04-15T10:49:58;17.40;99.90
28075;DHT22;15385;51.088;6.572;2023-04-15T10:52:29;17.20;99.90
28075;DHT22;15385;51.088;6.572;2023-04-15T10:55:13;17.00;99.90
28075;DHT22;15385;51.088;6.572;2023-04-15T10:57:53;16.90;99.90
28075;DHT22;15385;51.088;6.572;2023-04-15T11:00:25;16.90;99.90
28075;DHT22;15385;51.088;6.572;2023-04-15T11:03:06;16.90;99.90
28075;DHT22;15385;51.088;6.572;2023-04-15T11:08:12;16.80;99.90
28075;DHT22;15385;51.088;6.572;2023-04-15T11:13:19;16.20;99.90
28075;DHT22;15385;51.088;6.572;2023-04-15T11:15:55;16.20;99.90
28075;DHT22;15385;51.088;6.572;2023-04-15T11:18:28;16.40;99.90
28075;DHT22;15385;51.088;6.572;2023-04-15T11:21:05;16.70;99.90
28075;DHT22;15385;51.088;6.572;2023-04-15T11:23:42;16.70;99.90
28075;DHT22;15385;51.088;6.572;2023-04-15T11:26:16;16.50;99.90
28075;DHT22;15385;51.088;6.572;2023-04-15T11:28:46;16.30;99.90
28075;DHT22;15385;51.088;6.572;2023-04-15T11:31:17;16.10;99.90
28075;DHT22;15385;51.088;6.572;2023-04-15T11:33:57;15.90;99.90
28075;DHT22;15385;51.088;6.572;2023-04-15T11:36:29;15.80;99.90
28075;DHT22;15385;51.088;6.572;2023-04-15T11:39:01;15.80;99.90
28075;DHT22;15385;51.088;6.572;2023-04-15T11:41:31;15.70;99.90
28075;DHT22;15385;51.088;6.572;2023-04-15T11:44:02;15.80;99.90
28075;DHT22;15385;51.088;6.572;2023-04-15T11:46:33;15.90;99.90
28075;DHT22;15385;51.088;6.572;2023-04-15T11:49:03;15.80;99.90
28075;DHT22;15385;51.088;6.572;2023-04-15T11:51:34;15.70;99.90
28075;DHT22;15385;51.088;6.572;2023-04-15T11:54:05;15.80;99.90
28075;DHT22;15385;51.088;6.572;2023-04-15T11:56:36;15.60;99.90
28075;DHT22;15385;51.088;6.572;2023-04-15T11:59:06;15.50;99.90
28075;DHT22;15385;51.088;6.572;2023-04-15T12:01:38;15.50;99.90
28075;DHT22;15385;51.088;6.572;2023-04-15T12:04:15;15.60;99.90
28075;DHT22;15385;51.088;6.572;2023-04-15T12:06:51;15.60;99.90
28075;DHT22;15385;51.088;6.572;2023-04-15T12:09:21;15.60;99.90
28075;DHT22;15385;51.088;6.572;2023-04-15T12:11:56;16.00;99.90
28075;DHT22;15385;51.088;6.572;2023-04-15T12:14:29;16.10;99.90
28075;DHT22;15385;51.088;6.572;2023-04-15T12:17:01;16.10;99.90
28075;DHT22;15385;51.088;6.572;2023-04-15T12:22:14;16.00;99.90
28075;DHT22;15385;51.088;6.572;2023-04-15T12:24:45;16.00;99.90
28075;DHT22;15385;51.088;6.572;2023-04-15T12:27:18;16.10;99.90
28075;DHT22;15385;51.088;6.572;2023-04-15T12:29:50;16.00;99.90
28075;DHT22;15385;51.088;6.572;2023-04-15T12:32:35;15.80;99.90
28075;DHT22;15385;51.088;6.572;2023-04-15T12:35:06;15.80;99.90
28075;DHT22;15385;51.088;6.572;2023-04-15T12:37:37;15.60;99.90
28075;DHT22;15385;51.088;6.572;2023-04-15T12:40:08;15.40;99.90
28075;DHT22;15385;51.088;6.572;2023-04-15T12:42:39;15.30;99.90
28075;DHT22;15385;51.088;6.572;2023-04-15T12:45:09;15.20;99.90
28075;DHT22;15385;51.088;6.572;2023-04-15T12:47:40;15.10;99.90
28075;DHT22;15385;51.088;6.572;2023-04-15T12:50:11;14.90;99.90
28075;DHT22;15385;51.088;6.572;2023-04-15T12:52:42;14.90;99.90
28075;DHT22;15385;51.088;6.572;2023-04-15T12:55:12;14.90;99.90
28075;DHT22;15385;51.088;6.572;2023-04-15T12:57:43;14.90;99.90
28075;DHT22;15385;51.088;6.572;2023-04-15T13:00:14;14.90;99.90
28075;DHT22;15385;51.088;6.572;2023-04-15T13:02:44;14.90;99.90
28075;DHT22;15385;51.088;6.572;2023-04-15T13:05:16;14.90;99.90
28075;DHT22;15385;51.088;6.572;2023-04-15T13:07:47;14.80;99.90
28075;DHT22;15385;51.088;6.572;2023-04-15T13:10:17;14.80;99.90
28075;DHT22;15385;51.088;6.572;2023-04-15T13:12:48;14.80;99.90
28075;DHT22;15385;51.088;6.572;2023-04-15T13:15:22;14.80;99.90
28075;DHT22;15385;51.088;6.572;2023-04-15T13:17:53;14.80;99.90
28075;DHT22;15385;51.088;6.572;2023-04-15T13:20:24;14.90;99.90
28075;DHT22;15385;51.088;6.572;2023-04-15T13:22:56;14.80;99.90
28075;DHT22;15385;51.088;6.572;2023-04-15T13:25:26;14.90;99.90
28075;DHT22;15385;51.088;6.572;2023-04-15T13:27:57;15.00;99.90
28075;DHT22;15385;51.088;6.572;2023-04-15T13:30:28;14.90;99.90
28075;DHT22;15385;51.088;6.572;2023-04-15T13:32:58;14.80;99.90
28075;DHT22;15385;51.088;6.572;2023-04-15T13:35:30;14.80;99.90
28075;DHT22;15385;51.088;6.572;2023-04-15T13:38:00;14.80;99.90
28075;DHT22;15385;51.088;6.572;2023-04-15T13:40:31;14.70;99.90
28075;DHT22;15385;51.088;6.572;2023-04-15T13:43:01;14.80;99.90
28075;DHT22;15385;51.088;6.572;2023-04-15T13:45:33;14.60;99.90
28075;DHT22;15385;51.088;6.572;2023-04-15T13:48:03;14.50;99.90
28075;DHT22;15385;51.088;6.572;2023-04-15T13:50:34;14.50;99.90
28075;DHT22;15385;51.088;6.572;2023-04-15T13:53:05;14.50;99.90
28075;DHT22;15385;51.088;6.572;2023-04-15T13:55:35;14.50;99.90
28075;DHT22;15385;51.088;6.572;2023-04-15T13:58:08;14.50;99.90
28075;DHT22;15385;51.088;6.572;2023-04-15T14:00:39;14.50;99.90
28075;DHT22;15385;51.088;6.572;2023-04-15T14:03:10;14.50;99.90
28075;DHT22;15385;51.088;6.572;2023-04-15T14:05:40;14.60;99.90
28075;DHT22;15385;51.088;6.572;2023-04-15T14:08:11;14.70;99.90
28075;DHT22;15385;51.088;6.572;2023-04-15T14:10:42;14.90;99.90
28075;DHT22;15385;51.088;6.572;2023-04-15T14:13:15;14.80;99.90
28075;DHT22;15385;51.088;6.572;2023-04-15T14:15:46;14.80;99.90
28075;DHT22;15385;51.088;6.572;2023-04-15T14:18:16;14.80;99.90
28075;DHT22;15385;51.088;6.572;2023-04-15T14:20:47;14.70;99.90
28075;DHT22;15385;51.088;6.572;2023-04-15T14:23:18;14.70;99.90
28075;DHT22;15385;51.088;6.572;2023-04-15T14:25:49;14.70;99.90
28075;DHT22;15385;51.088;6.572;2023-04-15T14:28:21;14.60;99.90
28075;DHT22;15385;51.088;6.572;2023-04-15T14:30:51;14.50;99.90
28075;DHT22;15385;51.088;6.572;2023-04-15T14:33:22;14.50;99.90
28075;DHT22;15385;51.088;6.572;2023-04-15T14:35:53;14.40;99.90
28075;DHT22;15385;51.088;6.572;2023-04-15T14:38:24;14.40;99.90
28075;DHT22;15385;51.088;6.572;2023-04-15T14:40:54;14.30;99.90
28075;DHT22;15385;51.088;6.572;2023-04-15T14:43:25;14.30;99.90
28075;DHT22;15385;51.088;6.572;2023-04-15T14:45:55;14.40;99.90
28075;DHT22;15385;51.088;6.572;2023-04-15T14:48:27;14.30;99.90
28075;DHT22;15385;51.088;6.572;2023-04-15T14:50:58;14.30;99.90
28075;DHT22;15385;51.088;6.572;2023-04-15T14:53:29;14.10;99.90
28075;DHT22;15385;51.088;6.572;2023-04-15T14:55:59;14.20;99.90
28075;DHT22;15385;51.088;6.572;2023-04-15T14:58:30;14.20;99.90
28075;DHT22;15385;51.088;6.572;2023-04-15T15:01:03;14.10;99.90
28075;DHT22;15385;51.088;6.572;2023-04-15T15:03:33;14.10;99.90
28075;DHT22;15385;51.088;6.572;2023-04-15T15:06:04;14.10;99.90
28075;DHT22;15385;51.088;6.572;2023-04-15T15:08:34;14.20;99.90
28075;DHT22;15385;51.088;6.572;2023-04-15T15:11:06;14.20;99.90
28075;DHT22;15385;51.088;6.572;2023-04-15T15:13:37;14.20;99.90
28075;DHT22;15385;51.088;6.572;2023-04-15T15:16:07;14.20;99.90
28075;DHT22;15385;51.088;6.572;2023-04-15T15:18:38;14.20;99.90
28075;DHT22;15385;51.088;6.572;2023-04-15T15:21:10;14.50;99.90
28075;DHT22;15385;51.088;6.572;2023-04-15T15:23:40;14.40;99.90
28075;DHT22;15385;51.088;6.572;2023-04-15T15:26:11;14.30;99.90
28075;DHT22;15385;51.088;6.572;2023-04-15T15:28:42;14.30;99.90
28075;DHT22;15385;51.088;6.572;2023-04-15T15:31:13;14.30;99.90
28075;DHT22;15385;51.088;6.572;2023-04-15T15:33:44;14.30;99.90
28075;DHT22;15385;51.088;6.572;2023-04-15T15:36:15;14.30;99.90
28075;DHT22;15385;51.088;6.572;2023-04-15T15:38:45;14.30;99.90
28075;DHT22;15385;51.088;6.572;2023-04-15T15:41:16;14.50;99.90
28075;DHT22;15385;51.088;6.572;2023-04-15T15:43:47;14.70;99.90
28075;DHT22;15385;51.088;6.572;2023-04-15T15:46:17;14.70;99.90
28075;DHT22;15385;51.088;6.572;2023-04-15T15:48:48;14.70;99.90
28075;DHT22;15385;51.088;6.572;2023-04-15T15:51:19;14.70;99.90
28075;DHT22;15385;51.088;6.572;2023-04-15T15:53:50;14.60;99.90
28075;DHT22;15385;51.088;6.572;2023-04-15T15:56:21;14.70;99.90
28075;DHT22;15385;51.088;6.572;2023-04-15T15:58:51;14.70;99.90
28075;DHT22;15385;51.088;6.572;2023-04-15T16:01:22;14.80;99.90
28075;DHT22;15385;51.088;6.572;2023-04-15T16:03:52;14.80;99.90
28075;DHT22;15385;51.088;6.572;2023-04-15T16:06:23;14.70;99.90
28075;DHT22;15385;51.088;6.572;2023-04-15T16:08:54;14.50;99.90
28075;DHT22;15385;51.088;6.572;2023-04-15T16:11:24;14.40;99.90
28075;DHT22;15385;51.088;6.572;2023-04-15T16:13:55;14.30;99.90